Terminal Aerodrome Forecast
Issued by NWS Binghamton, NY

Home | Current Version | Previous Version | Text Only | Print | Product List | Glossary On
Versions: 1 2 3 4 5 6 7 8 9 10 11 12 13 14 15 16 17 18 19
000
FTUS41 KBGM 292300
TAFBGM
TAF
KBGM 292336Z 3000/3024 VRB05KT P6SM BKN250
      TEMPO 3009/3012 SCT015 BKN150
     FM301400 18010KT P6SM SCT040 SCT100
     FM302200 18008KT P6SM SCT040 SCT100 BKN250=

USA.gov is the U.S. government's official web portal to all federal, state and local government web resources and services.